sensor_id;sensor_type;location;lat;lon;timestamp;pressure;altitude;pressure_sealevel;temperature;humidity
55675;BME280;41562;44.330;23.802;2023-05-29T00:00:52;100117.41;;;17.09;100.00
55675;BME280;41562;44.330;23.802;2023-05-29T00:03:20;100112.63;;;17.15;100.00
55675;BME280;41562;44.330;23.802;2023-05-29T00:05:47;100119.63;;;17.24;100.00
55675;BME280;41562;44.330;23.802;2023-05-29T00:08:14;100107.84;;;17.20;100.00
55675;BME280;41562;44.330;23.802;2023-05-29T00:10:42;100107.56;;;17.13;100.00
55675;BME280;41562;44.330;23.802;2023-05-29T00:13:09;100119.94;;;17.14;100.00
55675;BME280;41562;44.330;23.802;2023-05-29T00:15:37;100115.81;;;17.08;100.00
55675;BME280;41562;44.330;23.802;2023-05-29T00:18:04;100122.66;;;17.06;100.00
55675;BME280;41562;44.330;23.802;2023-05-29T00:20:32;100116.44;;;17.05;100.00
55675;BME280;41562;44.330;23.802;2023-05-29T00:23:00;100128.97;;;17.01;100.00
55675;BME280;41562;44.330;23.802;2023-05-29T00:25:27;100125.19;;;17.02;100.00
55675;BME280;41562;44.330;23.802;2023-05-29T00:27:55;100120.75;;;17.06;100.00
55675;BME280;41562;44.330;23.802;2023-05-29T00:30:23;100113.75;;;17.05;100.00
55675;BME280;41562;44.330;23.802;2023-05-29T00:32:53;100111.03;;;17.14;100.00
55675;BME280;41562;44.330;23.802;2023-05-29T00:35:21;100106.59;;;17.09;100.00
55675;BME280;41562;44.330;23.802;2023-05-29T00:37:48;100115.66;;;17.05;100.00
55675;BME280;41562;44.330;23.802;2023-05-29T00:40:17;100114.22;;;17.07;100.00
55675;BME280;41562;44.330;23.802;2023-05-29T00:42:45;100107.84;;;17.03;100.00
55675;BME280;41562;44.330;23.802;2023-05-29T00:45:12;100103.72;;;16.97;100.00
55675;BME280;41562;44.330;23.802;2023-05-29T00:47:41;100105.31;;;16.98;100.00
55675;BME280;41562;44.330;23.802;2023-05-29T00:50:09;100100.69;;;17.07;100.00
55675;BME280;41562;44.330;23.802;2023-05-29T00:52:37;100106.28;;;17.11;100.00
55675;BME280;41562;44.330;23.802;2023-05-29T00:55:05;100099.25;;;17.01;100.00
55675;BME280;41562;44.330;23.802;2023-05-29T00:57:34;100099.44;;;16.96;100.00
55675;BME280;41562;44.330;23.802;2023-05-29T01:00:05;100099.28;;;16.93;100.00
55675;BME280;41562;44.330;23.802;2023-05-29T01:02:32;100098.00;;;16.90;100.00
55675;BME280;41562;44.330;23.802;2023-05-29T01:05:00;100093.88;;;16.93;100.00
55675;BME280;41562;44.330;23.802;2023-05-29T01:07:28;100094.50;;;16.89;100.00
55675;BME280;41562;44.330;23.802;2023-05-29T01:09:55;100097.38;;;16.93;100.00
55675;BME280;41562;44.330;23.802;2023-05-29T01:18:04;100095.00;;;17.17;100.00
55675;BME280;41562;44.330;23.802;2023-05-29T01:20:43;100098.66;;;17.21;100.00
55675;BME280;41562;44.330;23.802;2023-05-29T01:26:21;100091.66;;;17.20;100.00
55675;BME280;41562;44.330;23.802;2023-05-29T01:28:57;100094.84;;;17.22;100.00
55675;BME280;41562;44.330;23.802;2023-05-29T01:31:26;100092.47;;;17.12;100.00
55675;BME280;41562;44.330;23.802;2023-05-29T01:33:57;100096.41;;;17.15;100.00
55675;BME280;41562;44.330;23.802;2023-05-29T01:36:25;100089.41;;;16.97;100.00
55675;BME280;41562;44.330;23.802;2023-05-29T01:38:54;100089.44;;;17.05;100.00
55675;BME280;41562;44.330;23.802;2023-05-29T01:41:25;100093.25;;;17.04;100.00
55675;BME280;41562;44.330;23.802;2023-05-29T01:43:53;100103.56;;;17.02;100.00
55675;BME280;41562;44.330;23.802;2023-05-29T01:46:22;100095.63;;;17.06;100.00
55675;BME280;41562;44.330;23.802;2023-05-29T01:48:50;100090.84;;;17.03;100.00
55675;BME280;41562;44.330;23.802;2023-05-29T01:51:19;100090.41;;;17.01;100.00
55675;BME280;41562;44.330;23.802;2023-05-29T01:53:46;100092.44;;;17.04;100.00
55675;BME280;41562;44.330;23.802;2023-05-29T01:56:14;100095.47;;;17.02;100.00
55675;BME280;41562;44.330;23.802;2023-05-29T01:58:42;100094.34;;;16.95;100.00
55675;BME280;41562;44.330;23.802;2023-05-29T02:01:10;100093.25;;;16.87;100.00
55675;BME280;41562;44.330;23.802;2023-05-29T02:03:38;100088.16;;;16.85;100.00
55675;BME280;41562;44.330;23.802;2023-05-29T02:06:05;100081.50;;;17.00;100.00
55675;BME280;41562;44.330;23.802;2023-05-29T02:08:33;100079.41;;;16.97;100.00
55675;BME280;41562;44.330;23.802;2023-05-29T02:11:01;100078.63;;;16.88;100.00
55675;BME280;41562;44.330;23.802;2023-05-29T02:13:28;100081.31;;;16.79;100.00
55675;BME280;41562;44.330;23.802;2023-05-29T02:15:57;100075.41;;;16.77;100.00
55675;BME280;41562;44.330;23.802;2023-05-29T02:18:24;100077.97;;;16.74;100.00
55675;BME280;41562;44.330;23.802;2023-05-29T02:20:51;100077.44;;;16.63;100.00
55675;BME280;41562;44.330;23.802;2023-05-29T02:23:19;100079.84;;;16.65;100.00
55675;BME280;41562;44.330;23.802;2023-05-29T02:25:47;100082.53;;;16.65;100.00
55675;BME280;41562;44.330;23.802;2023-05-29T02:28:14;100081.69;;;16.47;100.00
55675;BME280;41562;44.330;23.802;2023-05-29T02:30:42;100078.81;;;16.43;100.00
55675;BME280;41562;44.330;23.802;2023-05-29T02:33:09;100079.78;;;16.47;100.00
55675;BME280;41562;44.330;23.802;2023-05-29T02:35:36;100077.09;;;16.47;100.00
55675;BME280;41562;44.330;23.802;2023-05-29T02:38:04;100080.09;;;16.46;100.00
55675;BME280;41562;44.330;23.802;2023-05-29T02:40:31;100076.94;;;16.53;100.00
55675;BME280;41562;44.330;23.802;2023-05-29T02:42:58;100078.50;;;16.45;100.00
55675;BME280;41562;44.330;23.802;2023-05-29T02:45:25;100081.66;;;16.38;100.00
55675;BME280;41562;44.330;23.802;2023-05-29T02:47:52;100079.13;;;16.42;100.00
55675;BME280;41562;44.330;23.802;2023-05-29T02:50:20;100084.22;;;16.43;100.00
55675;BME280;41562;44.330;23.802;2023-05-29T02:52:47;100077.88;;;16.57;100.00
55675;BME280;41562;44.330;23.802;2023-05-29T02:55:14;100074.59;;;16.60;100.00
55675;BME280;41562;44.330;23.802;2023-05-29T02:57:42;100076.94;;;16.53;100.00
55675;BME280;41562;44.330;23.802;2023-05-29T03:00:13;100085.78;;;16.44;100.00
55675;BME280;41562;44.330;23.802;2023-05-29T03:02:40;100086.59;;;16.36;100.00
55675;BME280;41562;44.330;23.802;2023-05-29T03:05:07;100089.28;;;16.36;100.00
55675;BME280;41562;44.330;23.802;2023-05-29T03:07:35;100085.94;;;16.31;100.00
55675;BME280;41562;44.330;23.802;2023-05-29T03:10:02;100090.88;;;16.37;100.00
55675;BME280;41562;44.330;23.802;2023-05-29T03:12:30;100095.03;;;16.43;100.00
55675;BME280;41562;44.330;23.802;2023-05-29T03:14:57;100089.88;;;16.33;100.00
55675;BME280;41562;44.330;23.802;2023-05-29T03:17:24;100092.94;;;16.40;100.00
55675;BME280;41562;44.330;23.802;2023-05-29T03:19:51;100094.69;;;16.36;100.00
55675;BME280;41562;44.330;23.802;2023-05-29T03:22:19;100098.88;;;17.97;100.00
55675;BME280;41562;44.330;23.802;2023-05-29T03:24:46;100108.00;;;18.60;100.00
55675;BME280;41562;44.330;23.802;2023-05-29T03:27:13;100115.00;;;18.32;100.00
55675;BME280;41562;44.330;23.802;2023-05-29T03:29:40;100120.13;;;18.54;100.00
55675;BME280;41562;44.330;23.802;2023-05-29T03:32:08;100113.19;;;18.44;100.00
55675;BME280;41562;44.330;23.802;2023-05-29T03:34:35;100113.78;;;18.21;100.00
55675;BME280;41562;44.330;23.802;2023-05-29T03:37:02;100112.09;;;18.37;100.00
55675;BME280;41562;44.330;23.802;2023-05-29T03:39:30;100118.66;;;18.65;100.00
55675;BME280;41562;44.330;23.802;2023-05-29T03:41:57;100113.22;;;18.95;100.00
55675;BME280;41562;44.330;23.802;2023-05-29T03:44:24;100119.44;;;18.95;100.00
55675;BME280;41562;44.330;23.802;2023-05-29T03:46:52;100113.88;;;19.12;100.00
55675;BME280;41562;44.330;23.802;2023-05-29T03:49:20;100117.00;;;19.02;100.00
55675;BME280;41562;44.330;23.802;2023-05-29T03:51:47;100123.22;;;19.03;100.00
55675;BME280;41562;44.330;23.802;2023-05-29T03:54:14;100119.66;;;18.90;100.00
55675;BME280;41562;44.330;23.802;2023-05-29T03:56:42;100121.22;;;18.91;100.00
55675;BME280;41562;44.330;23.802;2023-05-29T03:59:09;100133.38;;;19.06;100.00
55675;BME280;41562;44.330;23.802;2023-05-29T04:01:36;100134.38;;;19.01;100.00
55675;BME280;41562;44.330;23.802;2023-05-29T04:04:04;100144.28;;;18.76;100.00
55675;BME280;41562;44.330;23.802;2023-05-29T04:06:31;100140.25;;;19.03;100.00
55675;BME280;41562;44.330;23.802;2023-05-29T04:08:59;100140.53;;;18.90;100.00
55675;BME280;41562;44.330;23.802;2023-05-29T04:11:29;100150.00;;;18.75;100.00
55675;BME280;41562;44.330;23.802;2023-05-29T04:13:57;100161.69;;;18.96;100.00
55675;BME280;41562;44.330;23.802;2023-05-29T04:16:24;100151.44;;;19.22;99.79
55675;BME280;41562;44.330;23.802;2023-05-29T04:18:58;100155.53;;;19.08;100.00
55675;BME280;41562;44.330;23.802;2023-05-29T04:21:31;100163.50;;;18.83;100.00
55675;BME280;41562;44.330;23.802;2023-05-29T04:23:59;100163.81;;;19.11;100.00
55675;BME280;41562;44.330;23.802;2023-05-29T04:26:27;100161.81;;;18.70;100.00
55675;BME280;41562;44.330;23.802;2023-05-29T04:29:01;100168.81;;;19.01;100.00
55675;BME280;41562;44.330;23.802;2023-05-29T04:31:33;100169.19;;;18.91;100.00
55675;BME280;41562;44.330;23.802;2023-05-29T04:34:01;100180.03;;;18.91;100.00
55675;BME280;41562;44.330;23.802;2023-05-29T04:36:33;100175.16;;;18.84;100.00
55675;BME280;41562;44.330;23.802;2023-05-29T04:39:04;100172.53;;;18.96;100.00
55675;BME280;41562;44.330;23.802;2023-05-29T04:41:34;100173.06;;;18.43;100.00
55675;BME280;41562;44.330;23.802;2023-05-29T04:44:01;100177.97;;;18.58;100.00
55675;BME280;41562;44.330;23.802;2023-05-29T04:46:30;100172.13;;;18.39;100.00
55675;BME280;41562;44.330;23.802;2023-05-29T04:48:58;100168.72;;;18.59;100.00
55675;BME280;41562;44.330;23.802;2023-05-29T04:51:25;100164.34;;;18.37;100.00
55675;BME280;41562;44.330;23.802;2023-05-29T04:53:53;100173.97;;;18.64;100.00
55675;BME280;41562;44.330;23.802;2023-05-29T04:56:20;100175.41;;;18.62;100.00
55675;BME280;41562;44.330;23.802;2023-05-29T04:58:48;100170.69;;;19.09;100.00
55675;BME280;41562;44.330;23.802;2023-05-29T05:01:18;100178.53;;;19.02;100.00
55675;BME280;41562;44.330;23.802;2023-05-29T05:03:46;100183.78;;;18.77;100.00
55675;BME280;41562;44.330;23.802;2023-05-29T05:06:13;100181.59;;;18.71;100.00
55675;BME280;41562;44.330;23.802;2023-05-29T05:08:40;100179.00;;;18.28;100.00
55675;BME280;41562;44.330;23.802;2023-05-29T05:11:08;100185.66;;;17.75;100.00
55675;BME280;41562;44.330;23.802;2023-05-29T05:13:35;100185.50;;;17.63;100.00
55675;BME280;41562;44.330;23.802;2023-05-29T05:16:03;100184.50;;;17.59;100.00
55675;BME280;41562;44.330;23.802;2023-05-29T05:18:30;100184.34;;;17.55;100.00
55675;BME280;41562;44.330;23.802;2023-05-29T05:20:58;100187.53;;;17.49;100.00
55675;BME280;41562;44.330;23.802;2023-05-29T05:23:25;100192.78;;;17.54;100.00
55675;BME280;41562;44.330;23.802;2023-05-29T05:25:53;100192.00;;;17.45;100.00
55675;BME280;41562;44.330;23.802;2023-05-29T05:28:23;100192.00;;;17.45;100.00
55675;BME280;41562;44.330;23.802;2023-05-29T05:30:51;100201.38;;;17.56;100.00
55675;BME280;41562;44.330;23.802;2023-05-29T05:33:18;100198.19;;;17.54;100.00
55675;BME280;41562;44.330;23.802;2023-05-29T05:35:46;100206.28;;;17.54;100.00
55675;BME280;41562;44.330;23.802;2023-05-29T05:38:15;100212.53;;;17.63;100.00
55675;BME280;41562;44.330;23.802;2023-05-29T05:40:42;100211.44;;;17.64;100.00
55675;BME280;41562;44.330;23.802;2023-05-29T05:43:10;100207.59;;;17.82;100.00
55675;BME280;41562;44.330;23.802;2023-05-29T05:45:37;100205.53;;;17.79;100.00
55675;BME280;41562;44.330;23.802;2023-05-29T05:48:05;100209.34;;;17.78;100.00
55675;BME280;41562;44.330;23.802;2023-05-29T05:50:32;100209.16;;;17.83;100.00
55675;BME280;41562;44.330;23.802;2023-05-29T05:52:59;100199.94;;;17.93;100.00
55675;BME280;41562;44.330;23.802;2023-05-29T05:55:27;100202.78;;;17.96;100.00
55675;BME280;41562;44.330;23.802;2023-05-29T05:57:59;100206.91;;;18.02;100.00
55675;BME280;41562;44.330;23.802;2023-05-29T06:00:26;100206.28;;;18.05;100.00
55675;BME280;41562;44.330;23.802;2023-05-29T06:02:53;100213.63;;;18.05;100.00
55675;BME280;41562;44.330;23.802;2023-05-29T06:05:21;100215.84;;;18.12;100.00
55675;BME280;41562;44.330;23.802;2023-05-29T06:07:48;100205.63;;;18.26;100.00
55675;BME280;41562;44.330;23.802;2023-05-29T06:10:16;100209.13;;;18.26;100.00
55675;BME280;41562;44.330;23.802;2023-05-29T06:12:43;100210.84;;;18.31;100.00
55675;BME280;41562;44.330;23.802;2023-05-29T06:15:10;100214.88;;;19.30;100.00
55675;BME280;41562;44.330;23.802;2023-05-29T06:17:38;100203.16;;;19.38;100.00
55675;BME280;41562;44.330;23.802;2023-05-29T06:20:06;100209.50;;;19.42;100.00
55675;BME280;41562;44.330;23.802;2023-05-29T06:22:34;100214.00;;;19.47;100.00
55675;BME280;41562;44.330;23.802;2023-05-29T06:25:04;100216.63;;;19.76;100.00
55675;BME280;41562;44.330;23.802;2023-05-29T06:27:38;100223.44;;;19.82;100.00
55675;BME280;41562;44.330;23.802;2023-05-29T06:30:05;100223.00;;;19.92;100.00
55675;BME280;41562;44.330;23.802;2023-05-29T06:32:33;100227.28;;;19.60;100.00
55675;BME280;41562;44.330;23.802;2023-05-29T06:35:00;100234.75;;;19.63;100.00
55675;BME280;41562;44.330;23.802;2023-05-29T06:37:28;100230.25;;;19.67;100.00
55675;BME280;41562;44.330;23.802;2023-05-29T06:39:59;100242.44;;;19.61;100.00
55675;BME280;41562;44.330;23.802;2023-05-29T06:42:27;100240.31;;;19.46;100.00
55675;BME280;41562;44.330;23.802;2023-05-29T06:44:57;100231.19;;;19.72;100.00
55675;BME280;41562;44.330;23.802;2023-05-29T06:47:24;100235.56;;;19.64;100.00
55675;BME280;41562;44.330;23.802;2023-05-29T06:49:51;100233.69;;;19.77;100.00
55675;BME280;41562;44.330;23.802;2023-05-29T06:52:19;100226.16;;;19.61;100.00
55675;BME280;41562;44.330;23.802;2023-05-29T06:54:46;100230.94;;;19.64;100.00
55675;BME280;41562;44.330;23.802;2023-05-29T06:57:13;100240.97;;;19.85;100.00
55675;BME280;41562;44.330;23.802;2023-05-29T06:59:41;100237.00;;;19.61;100.00
55675;BME280;41562;44.330;23.802;2023-05-29T07:02:08;100238.59;;;19.62;100.00
55675;BME280;41562;44.330;23.802;2023-05-29T07:04:35;100237.16;;;19.65;100.00
55675;BME280;41562;44.330;23.802;2023-05-29T07:07:02;100237.78;;;19.62;100.00
55675;BME280;41562;44.330;23.802;2023-05-29T07:09:30;100245.69;;;19.76;100.00
55675;BME280;41562;44.330;23.802;2023-05-29T07:12:00;100247.16;;;20.06;100.00
55675;BME280;41562;44.330;23.802;2023-05-29T07:14:28;100252.63;;;19.64;100.00
55675;BME280;41562;44.330;23.802;2023-05-29T07:16:55;100253.69;;;19.51;97.92
55675;BME280;41562;44.330;23.802;2023-05-29T07:19:22;100251.78;;;19.73;96.66
55675;BME280;41562;44.330;23.802;2023-05-29T07:21:50;100253.88;;;20.41;93.10
55675;BME280;41562;44.330;23.802;2023-05-29T07:24:18;100262.41;;;20.31;90.78
55675;BME280;41562;44.330;23.802;2023-05-29T07:26:45;100267.47;;;20.41;92.04
55675;BME280;41562;44.330;23.802;2023-05-29T07:29:13;100269.66;;;20.72;89.58
55675;BME280;41562;44.330;23.802;2023-05-29T07:31:40;100270.81;;;20.96;89.49
55675;BME280;41562;44.330;23.802;2023-05-29T07:34:08;100278.38;;;20.78;89.37
55675;BME280;41562;44.330;23.802;2023-05-29T07:36:35;100274.06;;;20.65;88.09
55675;BME280;41562;44.330;23.802;2023-05-29T07:39:02;100275.06;;;20.48;88.73
55675;BME280;41562;44.330;23.802;2023-05-29T07:41:30;100273.91;;;20.16;89.49
55675;BME280;41562;44.330;23.802;2023-05-29T07:43:57;100275.78;;;20.03;91.17
55675;BME280;41562;44.330;23.802;2023-05-29T07:46:24;100270.72;;;20.14;91.61
55675;BME280;41562;44.330;23.802;2023-05-29T07:48:52;100279.69;;;20.48;90.55
55675;BME280;41562;44.330;23.802;2023-05-29T07:51:19;100281.97;;;20.58;88.27
55675;BME280;41562;44.330;23.802;2023-05-29T07:53:47;100280.97;;;20.29;88.03
55675;BME280;41562;44.330;23.802;2023-05-29T07:56:14;100279.72;;;20.27;87.12
55675;BME280;41562;44.330;23.802;2023-05-29T07:58:42;100275.34;;;20.14;88.91
55675;BME280;41562;44.330;23.802;2023-05-29T08:01:10;100282.06;;;20.16;88.70
55675;BME280;41562;44.330;23.802;2023-05-29T08:03:37;100284.19;;;20.43;86.01
55675;BME280;41562;44.330;23.802;2023-05-29T08:06:05;100281.41;;;20.52;86.85
55675;BME280;41562;44.330;23.802;2023-05-29T08:08:32;100275.06;;;20.27;88.36
55675;BME280;41562;44.330;23.802;2023-05-29T08:11:00;100288.19;;;20.25;90.32
55675;BME280;41562;44.330;23.802;2023-05-29T08:13:29;100283.97;;;20.16;93.76
55675;BME280;41562;44.330;23.802;2023-05-29T08:15:57;100282.03;;;19.54;100.00
55675;BME280;41562;44.330;23.802;2023-05-29T08:18:25;100284.41;;;19.85;100.00
55675;BME280;41562;44.330;23.802;2023-05-29T08:20:53;100282.72;;;19.92;100.00
55675;BME280;41562;44.330;23.802;2023-05-29T08:23:20;100275.66;;;19.58;100.00
55675;BME280;41562;44.330;23.802;2023-05-29T08:25:48;100275.97;;;19.57;100.00
55675;BME280;41562;44.330;23.802;2023-05-29T08:28:15;100271.44;;;19.11;100.00
55675;BME280;41562;44.330;23.802;2023-05-29T08:30:43;100255.53;;;19.30;100.00
55675;BME280;41562;44.330;23.802;2023-05-29T08:33:10;100261.91;;;19.05;100.00
55675;BME280;41562;44.330;23.802;2023-05-29T08:35:37;100264.38;;;18.89;100.00
55675;BME280;41562;44.330;23.802;2023-05-29T08:38:05;100264.41;;;19.10;100.00
55675;BME280;41562;44.330;23.802;2023-05-29T08:40:32;100252.41;;;19.19;100.00
55675;BME280;41562;44.330;23.802;2023-05-29T08:43:06;100247.19;;;19.35;100.00
55675;BME280;41562;44.330;23.802;2023-05-29T08:45:43;100249.97;;;19.77;100.00
55675;BME280;41562;44.330;23.802;2023-05-29T08:48:11;100255.94;;;20.57;100.00
55675;BME280;41562;44.330;23.802;2023-05-29T08:50:44;100256.88;;;20.97;100.00
55675;BME280;41562;44.330;23.802;2023-05-29T08:53:13;100249.63;;;21.01;100.00
55675;BME280;41562;44.330;23.802;2023-05-29T08:55:41;100252.56;;;20.72;100.00
55675;BME280;41562;44.330;23.802;2023-05-29T08:58:09;100242.34;;;20.57;100.00
55675;BME280;41562;44.330;23.802;2023-05-29T09:00:38;100236.22;;;20.48;100.00
55675;BME280;41562;44.330;23.802;2023-05-29T09:03:07;100236.72;;;20.29;100.00
55675;BME280;41562;44.330;23.802;2023-05-29T09:05:39;100231.63;;;20.27;100.00
55675;BME280;41562;44.330;23.802;2023-05-29T09:08:08;100238.63;;;20.16;100.00
55675;BME280;41562;44.330;23.802;2023-05-29T09:10:35;100233.03;;;20.33;100.00
55675;BME280;41562;44.330;23.802;2023-05-29T09:13:05;100230.09;;;20.38;100.00
55675;BME280;41562;44.330;23.802;2023-05-29T09:15:32;100234.97;;;20.45;100.00
55675;BME280;41562;44.330;23.802;2023-05-29T09:18:00;100234.31;;;20.48;100.00
55675;BME280;41562;44.330;23.802;2023-05-29T09:20:30;100226.59;;;20.17;100.00
55675;BME280;41562;44.330;23.802;2023-05-29T09:23:00;100232.22;;;20.33;100.00
55675;BME280;41562;44.330;23.802;2023-05-29T09:25:29;100226.41;;;20.22;100.00
55675;BME280;41562;44.330;23.802;2023-05-29T09:28:03;100230.22;;;20.09;100.00
55675;BME280;41562;44.330;23.802;2023-05-29T09:30:44;100224.06;;;20.00;100.00
55675;BME280;41562;44.330;23.802;2023-05-29T09:33:13;100221.59;;;20.07;100.00
55675;BME280;41562;44.330;23.802;2023-05-29T09:35:48;100225.22;;;20.44;100.00
55675;BME280;41562;44.330;23.802;2023-05-29T09:38:19;100223.81;;;20.71;99.30
55675;BME280;41562;44.330;23.802;2023-05-29T09:41:07;100223.78;;;21.07;94.96
55675;BME280;41562;44.330;23.802;2023-05-29T09:43:34;100221.53;;;20.97;95.06
55675;BME280;41562;44.330;23.802;2023-05-29T09:46:05;100215.88;;;20.90;95.96
55675;BME280;41562;44.330;23.802;2023-05-29T09:48:34;100216.09;;;20.97;95.48
55675;BME280;41562;44.330;23.802;2023-05-29T09:51:02;100208.81;;;21.13;96.62
55675;BME280;41562;44.330;23.802;2023-05-29T09:53:30;100217.59;;;21.59;93.74
55675;BME280;41562;44.330;23.802;2023-05-29T09:56:02;100207.66;;;21.79;94.58
55675;BME280;41562;44.330;23.802;2023-05-29T09:58:32;100208.22;;;21.84;95.68
55675;BME280;41562;44.330;23.802;2023-05-29T10:01:00;100204.88;;;22.03;99.61
55675;BME280;41562;44.330;23.802;2023-05-29T10:03:27;100206.56;;;22.23;96.42
55675;BME280;41562;44.330;23.802;2023-05-29T10:05:55;100204.47;;;22.32;93.95
55675;BME280;41562;44.330;23.802;2023-05-29T10:08:25;100194.97;;;22.26;90.20
55675;BME280;41562;44.330;23.802;2023-05-29T10:10:59;100184.09;;;22.42;95.07
55675;BME280;41562;44.330;23.802;2023-05-29T10:13:28;100187.19;;;22.56;94.42
55675;BME280;41562;44.330;23.802;2023-05-29T10:15:58;100182.41;;;22.53;95.00
55675;BME280;41562;44.330;23.802;2023-05-29T10:18:35;100191.38;;;22.54;92.35
55675;BME280;41562;44.330;23.802;2023-05-29T10:21:06;100179.59;;;22.34;92.00
55675;BME280;41562;44.330;23.802;2023-05-29T10:23:36;100186.13;;;22.76;88.49
55675;BME280;41562;44.330;23.802;2023-05-29T10:26:31;100174.75;;;22.90;88.22
55675;BME280;41562;44.330;23.802;2023-05-29T10:29:08;100174.41;;;22.92;88.41
55675;BME280;41562;44.330;23.802;2023-05-29T10:37:40;100165.75;;;23.05;84.50
55675;BME280;41562;44.330;23.802;2023-05-29T10:40:11;100164.63;;;23.25;84.43
55675;BME280;41562;44.330;23.802;2023-05-29T10:42:48;100167.00;;;23.46;81.64
55675;BME280;41562;44.330;23.802;2023-05-29T10:50:47;100158.69;;;23.39;80.99
55675;BME280;41562;44.330;23.802;2023-05-29T10:53:23;100153.22;;;23.58;77.68
55675;BME280;41562;44.330;23.802;2023-05-29T10:55:51;100149.16;;;23.68;78.26
55675;BME280;41562;44.330;23.802;2023-05-29T10:58:21;100148.63;;;23.43;76.83
55675;BME280;41562;44.330;23.802;2023-05-29T11:00:49;100145.63;;;23.48;77.22
55675;BME280;41562;44.330;23.802;2023-05-29T11:03:21;100135.34;;;23.42;76.41
55675;BME280;41562;44.330;23.802;2023-05-29T11:06:02;100145.16;;;23.27;76.09
55675;BME280;41562;44.330;23.802;2023-05-29T11:11:33;100142.00;;;23.06;77.21
55675;BME280;41562;44.330;23.802;2023-05-29T11:14:05;100134.63;;;22.91;75.66
55675;BME280;41562;44.330;23.802;2023-05-29T11:19:04;100129.78;;;23.00;75.85
55675;BME280;41562;44.330;23.802;2023-05-29T11:26:48;100128.25;;;22.67;77.46
55675;BME280;41562;44.330;23.802;2023-05-29T11:29:21;100122.63;;;22.60;77.92
55675;BME280;41562;44.330;23.802;2023-05-29T11:32:05;100123.94;;;22.82;76.46
55675;BME280;41562;44.330;23.802;2023-05-29T11:34:33;100119.13;;;22.75;76.10
55675;BME280;41562;44.330;23.802;2023-05-29T11:37:04;100114.09;;;22.77;73.52
55675;BME280;41562;44.330;23.802;2023-05-29T11:39:36;100117.00;;;23.04;74.37
55675;BME280;41562;44.330;23.802;2023-05-29T11:42:04;100105.66;;;23.21;74.13
55675;BME280;41562;44.330;23.802;2023-05-29T11:44:31;100103.09;;;23.28;74.62
55675;BME280;41562;44.330;23.802;2023-05-29T11:47:04;100095.97;;;23.23;74.52
55675;BME280;41562;44.330;23.802;2023-05-29T11:49:33;100093.59;;;23.41;73.28
55675;BME280;41562;44.330;23.802;2023-05-29T11:52:14;100093.47;;;23.53;71.27
55675;BME280;41562;44.330;23.802;2023-05-29T11:54:44;100091.19;;;23.55;71.02
55675;BME280;41562;44.330;23.802;2023-05-29T11:57:11;100092.81;;;23.60;71.02
55675;BME280;41562;44.330;23.802;2023-05-29T11:59:38;100081.75;;;23.53;71.47
55675;BME280;41562;44.330;23.802;2023-05-29T12:02:06;100070.94;;;23.56;70.05
55675;BME280;41562;44.330;23.802;2023-05-29T12:04:34;100078.69;;;23.54;66.89
55675;BME280;41562;44.330;23.802;2023-05-29T12:07:01;100071.84;;;23.64;71.36
55675;BME280;41562;44.330;23.802;2023-05-29T12:09:32;100067.59;;;23.67;68.72
55675;BME280;41562;44.330;23.802;2023-05-29T12:12:04;100063.28;;;23.65;69.39
55675;BME280;41562;44.330;23.802;2023-05-29T12:14:32;100058.56;;;23.62;69.17
55675;BME280;41562;44.330;23.802;2023-05-29T12:17:00;100044.28;;;23.73;70.41
55675;BME280;41562;44.330;23.802;2023-05-29T12:19:29;100059.00;;;23.64;70.32
55675;BME280;41562;44.330;23.802;2023-05-29T12:21:56;100053.13;;;23.24;73.42
55675;BME280;41562;44.330;23.802;2023-05-29T12:24:24;100054.34;;;23.07;73.92
55675;BME280;41562;44.330;23.802;2023-05-29T12:27:05;100046.59;;;23.09;75.69
55675;BME280;41562;44.330;23.802;2023-05-29T12:29:33;100047.50;;;23.36;72.79
55675;BME280;41562;44.330;23.802;2023-05-29T12:32:02;100042.03;;;23.55;69.38
55675;BME280;41562;44.330;23.802;2023-05-29T12:34:36;100046.00;;;23.58;69.14
55675;BME280;41562;44.330;23.802;2023-05-29T12:37:06;100044.72;;;23.75;69.58
55675;BME280;41562;44.330;23.802;2023-05-29T12:39:33;100036.53;;;23.52;70.58
55675;BME280;41562;44.330;23.802;2023-05-29T12:42:01;100033.19;;;23.43;73.01
55675;BME280;41562;44.330;23.802;2023-05-29T12:44:32;100032.78;;;23.21;71.55
55675;BME280;41562;44.330;23.802;2023-05-29T12:47:00;100031.88;;;23.14;71.59
55675;BME280;41562;44.330;23.802;2023-05-29T12:49:28;100031.00;;;23.10;71.93
55675;BME280;41562;44.330;23.802;2023-05-29T12:52:05;100027.56;;;23.32;70.94
55675;BME280;41562;44.330;23.802;2023-05-29T12:54:33;100026.09;;;23.38;72.35
55675;BME280;41562;44.330;23.802;2023-05-29T12:57:00;100024.88;;;23.36;70.18
55675;BME280;41562;44.330;23.802;2023-05-29T12:59:28;100024.13;;;23.16;72.61
55675;BME280;41562;44.330;23.802;2023-05-29T13:01:56;100020.03;;;23.06;72.65
55675;BME280;41562;44.330;23.802;2023-05-29T13:04:24;100015.28;;;23.03;73.07
55675;BME280;41562;44.330;23.802;2023-05-29T13:07:05;100017.66;;;23.05;73.55
55675;BME280;41562;44.330;23.802;2023-05-29T13:09:47;100008.34;;;23.06;74.18
55675;BME280;41562;44.330;23.802;2023-05-29T13:12:32;100009.13;;;23.06;75.06